createdAt,value
2023-01-09T00:02:01.830Z,98868.19
2023-01-09T00:04:28.457Z,98861.34
2023-01-09T00:06:55.066Z,98877.53
2023-01-09T00:09:25.020Z,98878.38
2023-01-09T00:11:52.230Z,98890.38
2023-01-09T00:14:19.362Z,98883.63
2023-01-09T00:16:45.950Z,98889.66
2023-01-09T00:19:12.808Z,98887.97
2023-01-09T00:21:39.571Z,98901.59
2023-01-09T00:24:06.576Z,98901.47
2023-01-09T00:26:33.240Z,98907.47
2023-01-09T00:28:59.801Z,98915.38
2023-01-09T00:31:26.553Z,98919.53
2023-01-09T00:34:03.456Z,98938.31
2023-01-09T00:36:30.166Z,98938.56
2023-01-09T00:38:56.778Z,98947.94
2023-01-09T00:41:27.657Z,98943.88
2023-01-09T00:43:58.148Z,98962.53
2023-01-09T00:46:31.793Z,98969.41
2023-01-09T00:48:59.429Z,98954.22
2023-01-09T00:51:26.213Z,98978.09
2023-01-09T00:53:52.843Z,98976.50
2023-01-09T00:56:20.957Z,98983.47
2023-01-09T00:58:48.487Z,98984.44
2023-01-09T01:01:15.117Z,98998.25
2023-01-09T01:03:41.742Z,98989.78
2023-01-09T01:06:27.412Z,98991.59
2023-01-09T01:08:55.913Z,98999.25
2023-01-09T01:11:22.802Z,99012.25
2023-01-09T01:13:49.567Z,99028.63
2023-01-09T01:16:18.303Z,99020.91
2023-01-09T01:18:45.234Z,99028.63
2023-01-09T01:21:13.927Z,99032.13
2023-01-09T01:23:41.202Z,99028.00
2023-01-09T01:26:10.391Z,99036.41
2023-01-09T01:28:36.965Z,99039.06
2023-01-09T01:31:04.147Z,99049.34
2023-01-09T01:33:31.738Z,99066.34
2023-01-09T01:36:09.063Z,99056.22
2023-01-09T01:38:36.255Z,99081.97
2023-01-09T01:41:03.910Z,99077.50
2023-01-09T01:43:50.649Z,99091.34
2023-01-09T01:46:18.618Z,99094.78
2023-01-09T01:48:46.547Z,99096.66
2023-01-09T01:51:15.700Z,99089.94
2023-01-09T01:53:48.352Z,99097.63
2023-01-09T01:56:28.095Z,99097.06
2023-01-09T01:58:57.392Z,99115.91
2023-01-09T02:01:25.713Z,99106.72
2023-01-09T02:03:56.466Z,99121.34
2023-01-09T02:06:23.338Z,99121.63
2023-01-09T02:08:50.446Z,99125.22
2023-01-09T02:11:19.623Z,99141.69
2023-01-09T02:13:46.716Z,99140.19
2023-01-09T02:16:22.203Z,99153.91
2023-01-09T02:18:54.094Z,99157.53
2023-01-09T02:21:57.741Z,99163.69
2023-01-09T02:24:49.876Z,99175.13
2023-01-09T02:27:50.799Z,99182.09
2023-01-09T02:30:55.758Z,99185.66
2023-01-09T02:33:39.323Z,99203.94
2023-01-09T02:36:18.263Z,99205.75
2023-01-09T02:39:08.075Z,99210.19
2023-01-09T02:41:53.116Z,99218.06
2023-01-09T02:44:24.592Z,99221.59
2023-01-09T02:47:28.012Z,99222.59
2023-01-09T02:50:04.243Z,99226.19
2023-01-09T02:53:00.292Z,99231.53
2023-01-09T02:55:48.779Z,99236.84
2023-01-09T02:58:30.475Z,99238.66
2023-01-09T03:01:10.240Z,99249.13
2023-01-09T03:04:04.623Z,99249.28
2023-01-09T03:06:40.737Z,99240.69
2023-01-09T03:09:14.380Z,99250.34
2023-01-09T03:11:47.890Z,99249.53
2023-01-09T03:14:17.935Z,99253.00
2023-01-09T03:16:48.555Z,99263.34
2023-01-09T03:19:19.878Z,99266.03
2023-01-09T03:21:47.762Z,99266.81
2023-01-09T03:24:14.495Z,99257.44
2023-01-09T03:26:41.295Z,99272.84
2023-01-09T03:29:07.879Z,99260.91
2023-01-09T03:31:34.539Z,99271.25
2023-01-09T03:34:01.123Z,99274.63
2023-01-09T03:36:27.767Z,99283.94
2023-01-09T03:38:54.239Z,99284.00
2023-01-09T03:41:20.861Z,99282.25
2023-01-09T03:43:48.571Z,99293.28
2023-01-09T03:46:16.700Z,99285.63
2023-01-09T03:48:43.626Z,99297.50
2023-01-09T03:51:10.749Z,99303.53
2023-01-09T03:53:37.542Z,99303.63
2023-01-09T03:56:04.549Z,99309.53
2023-01-09T03:58:31.065Z,99313.91
2023-01-09T04:01:03.940Z,99320.69
2023-01-09T04:03:30.628Z,99320.69
2023-01-09T04:05:57.323Z,99332.69
2023-01-09T04:08:23.902Z,99328.53
2023-01-09T04:10:52.617Z,99347.25
2023-01-09T04:13:19.496Z,99338.78
2023-01-09T04:15:46.204Z,99326.88
2023-01-09T04:18:13.207Z,99344.78
2023-01-09T04:20:39.982Z,99350.16
2023-01-09T04:23:06.566Z,99354.53
2023-01-09T04:25:33.194Z,99359.72
2023-01-09T04:27:59.754Z,99368.25
2023-01-09T04:30:26.289Z,99360.72
2023-01-09T04:32:52.984Z,99367.66
2023-01-09T04:35:20.174Z,99380.50
2023-01-09T04:37:47.103Z,99375.50
2023-01-09T04:40:14.220Z,99387.50
2023-01-09T04:42:41.274Z,99374.78
2023-01-09T04:45:10.087Z,99386.78
2023-01-09T04:47:36.861Z,99402.19
2023-01-09T04:50:04.370Z,99404.75
2023-01-09T04:52:31.007Z,99404.75
2023-01-09T04:54:57.633Z,99409.97
2023-01-09T04:57:24.098Z,99398.91
2023-01-09T04:59:52.145Z,99409.13
2023-01-09T05:02:18.910Z,99402.34
2023-01-09T05:04:45.408Z,99420.25
2023-01-09T05:07:12.009Z,99415.09
2023-01-09T05:09:38.509Z,99416.81
2023-01-09T05:12:05.386Z,99434.03
2023-01-09T05:14:31.949Z,99423.00
2023-01-09T05:16:58.455Z,99436.66
2023-01-09T05:19:24.928Z,99421.25
2023-01-09T05:21:51.420Z,99434.88
2023-01-09T05:24:17.927Z,99441.94
2023-01-09T05:26:44.416Z,99455.56
2023-01-09T05:29:10.942Z,99452.22
2023-01-09T05:31:37.716Z,99456.59
2023-01-09T05:34:04.234Z,99452.41
2023-01-09T05:36:30.914Z,99461.66
2023-01-09T05:39:02.489Z,99472.84
2023-01-09T05:41:29.162Z,99470.31
2023-01-09T05:43:55.663Z,99474.53
2023-01-09T05:46:22.371Z,99474.56
2023-01-09T05:48:48.839Z,99481.44
2023-01-09T05:51:15.351Z,99485.72
2023-01-09T05:53:41.987Z,99473.78
2023-01-09T05:56:10.729Z,99477.25
2023-01-09T05:58:37.982Z,99478.00
2023-01-09T06:01:04.820Z,99490.78
2023-01-09T06:03:31.450Z,99478.06
2023-01-09T06:05:57.989Z,99497.75
2023-01-09T06:08:24.557Z,99494.34
2023-01-09T06:10:51.064Z,99496.06
2023-01-09T06:13:17.526Z,99502.19
2023-01-09T06:15:44.161Z,99492.03
2023-01-09T06:18:10.821Z,99511.63
2023-01-09T06:20:37.407Z,99510.88
2023-01-09T06:23:04.109Z,99520.97
2023-01-09T06:25:30.598Z,99536.47
2023-01-09T06:27:57.101Z,99522.00
2023-01-09T06:30:23.683Z,99524.59
2023-01-09T06:32:50.581Z,99546.78
2023-01-09T06:35:22.286Z,99539.16
2023-01-09T06:37:49.943Z,99539.22
2023-01-09T06:40:17.959Z,99540.03
2023-01-09T06:42:45.745Z,99539.22
2023-01-09T06:45:13.542Z,99554.63
2023-01-09T06:47:40.773Z,99557.25
2023-01-09T06:50:09.382Z,99561.56
2023-01-09T06:52:37.085Z,99569.34
2023-01-09T06:55:04.207Z,99554.81
2023-01-09T06:57:30.809Z,99564.34
2023-01-09T06:59:57.970Z,99573.81
2023-01-09T07:02:24.741Z,99574.75
2023-01-09T07:04:51.341Z,99558.66
2023-01-09T07:07:19.431Z,99586.97
2023-01-09T07:09:46.053Z,99575.06
2023-01-09T07:12:12.966Z,99580.38
2023-01-09T07:14:39.619Z,99594.06
2023-01-09T07:17:06.423Z,99573.63
2023-01-09T07:19:33.146Z,99589.84
2023-01-09T07:21:59.641Z,99581.34
2023-01-09T07:24:26.418Z,99591.72
2023-01-09T07:26:53.010Z,99600.16
2023-01-09T07:29:19.668Z,99607.94
2023-01-09T07:31:46.440Z,99613.97
2023-01-09T07:34:12.913Z,99618.28
2023-01-09T07:36:39.425Z,99615.81
2023-01-09T07:39:05.942Z,99614.13
2023-01-09T07:41:32.443Z,99634.59
2023-01-09T07:43:58.968Z,99632.16
2023-01-09T07:46:25.643Z,99655.25
2023-01-09T07:48:52.122Z,99647.63
2023-01-09T07:51:18.776Z,99669.06
2023-01-09T07:53:45.261Z,99673.38
2023-01-09T07:56:12.114Z,99653.75
2023-01-09T07:58:38.792Z,99680.31
2023-01-09T08:01:06.070Z,99672.69
2023-01-09T08:03:35.407Z,99671.00
2023-01-09T08:06:01.974Z,99663.31
2023-01-09T08:08:28.510Z,99680.31
2023-01-09T08:10:55.010Z,99677.03
2023-01-09T08:13:21.910Z,99680.44
2023-01-09T08:15:48.565Z,99697.56
2023-01-09T08:18:15.235Z,99701.88
2023-01-09T08:20:41.814Z,99713.97
2023-01-09T08:23:08.428Z,99719.88
2023-01-09T08:25:34.997Z,99717.41
2023-01-09T08:28:01.622Z,99728.59
2023-01-09T08:30:28.106Z,99749.06
2023-01-09T08:32:54.646Z,99743.13
2023-01-09T08:35:21.595Z,99761.06
2023-01-09T08:37:49.138Z,99777.31
2023-01-09T08:40:17.311Z,99773.88
2023-01-09T08:43:02.927Z,99755.06
2023-01-09T08:45:48.779Z,99763.47
2023-01-09T08:48:15.390Z,99769.44
2023-01-09T08:50:42.016Z,99783.94
2023-01-09T08:53:08.577Z,99792.50
2023-01-09T08:55:35.219Z,99783.84
2023-01-09T08:58:01.961Z,99756.66
2023-01-09T09:00:28.994Z,99794.13
2023-01-09T09:03:00.246Z,99765.19
2023-01-09T09:05:29.292Z,99804.41
2023-01-09T09:07:56.051Z,99813.88
2023-01-09T09:10:24.183Z,99807.81
2023-01-09T09:12:52.443Z,99816.19
2023-01-09T09:15:25.358Z,99814.38
2023-01-09T09:17:54.890Z,99848.59
2023-01-09T09:20:28.433Z,99837.22
2023-01-09T09:22:57.873Z,99799.56
2023-01-09T09:25:25.042Z,99838.75
2023-01-09T09:27:51.740Z,99846.47
2023-01-09T09:30:19.816Z,99863.53
2023-01-09T09:32:46.763Z,99864.28
2023-01-09T09:35:13.487Z,99872.81
2023-01-09T09:37:40.452Z,99861.69
2023-01-09T09:40:18.279Z,99864.84
2023-01-09T09:43:32.009Z,99889.59
2023-01-09T09:46:24.670Z,99892.91
2023-01-09T09:48:57.126Z,99884.38
2023-01-09T09:51:36.087Z,99903.81
2023-01-09T09:54:38.031Z,99908.88
2023-01-09T09:57:07.100Z,99891.72
2023-01-09T09:59:37.115Z,99895.88
2023-01-09T10:02:09.736Z,99925.78
2023-01-09T10:04:44.705Z,99910.41
2023-01-09T10:07:22.715Z,99932.59
2023-01-09T10:09:54.306Z,99901.94
2023-01-09T10:12:32.383Z,99957.47
2023-01-09T10:15:02.324Z,99958.31
2023-01-09T10:17:39.570Z,99968.69
2023-01-09T10:20:11.957Z,99980.75
2023-01-09T10:23:16.174Z,99985.94
2023-01-09T10:26:22.188Z,99994.53
2023-01-09T10:29:25.393Z,99997.91
2023-01-09T10:32:10.667Z,99997.03
2023-01-09T10:35:10.257Z,99982.63
2023-01-09T10:37:47.235Z,99999.56
2023-01-09T10:40:25.392Z,100027.69
2023-01-09T10:43:07.087Z,100052.59
2023-01-09T10:45:43.515Z,100033.47
2023-01-09T10:48:20.572Z,100031.69
2023-01-09T10:50:50.298Z,100031.41
2023-01-09T10:53:22.151Z,100054.44
2023-01-09T10:55:54.958Z,100046.53
2023-01-09T10:58:23.118Z,100070.41
2023-01-09T11:00:50.860Z,100032.81
2023-01-09T11:03:20.785Z,100061.88
2023-01-09T11:05:56.528Z,100084.78
2023-01-09T11:08:35.329Z,100049.59
2023-01-09T11:11:03.375Z,100066.66
2023-01-09T11:13:33.171Z,100064.88
2023-01-09T11:16:09.434Z,100084.25
2023-01-09T11:18:47.886Z,100092.69
2023-01-09T11:21:36.217Z,100086.50
2023-01-09T11:24:27.474Z,100091.22
2023-01-09T11:27:13.696Z,100074.16
2023-01-09T11:29:41.415Z,100103.25
2023-01-09T11:32:22.638Z,100066.50
2023-01-09T11:34:49.620Z,100105.63
2023-01-09T11:37:26.267Z,100070.50
2023-01-09T11:39:53.341Z,100089.09
2023-01-09T11:42:45.402Z,100093.53
2023-01-09T11:45:40.430Z,100107.03
2023-01-09T11:48:39.119Z,100130.25
2023-01-09T11:51:30.053Z,100137.31
2023-01-09T11:54:18.012Z,100103.41
2023-01-09T11:56:46.228Z,100158.78
2023-01-09T11:59:15.524Z,100144.25
2023-01-09T12:01:51.259Z,100161.13
2023-01-09T12:04:17.715Z,100170.69
2023-01-09T12:07:20.730Z,100187.69
2023-01-09T12:10:12.106Z,100190.25
2023-01-09T12:12:49.433Z,100168.28
2023-01-09T12:15:32.167Z,100195.09
2023-01-09T12:18:23.750Z,100158.47
2023-01-09T12:21:18.082Z,100195.19
2023-01-09T12:24:21.833Z,100210.78
2023-01-09T12:27:01.148Z,100205.53
2023-01-09T12:29:37.996Z,100199.63
2023-01-09T12:32:12.288Z,100203.13
2023-01-09T12:34:57.432Z,100216.78
2023-01-09T12:37:46.382Z,100201.50
2023-01-09T12:40:16.086Z,100225.38
2023-01-09T12:43:06.945Z,100230.56
2023-01-09T12:45:59.887Z,100233.91
2023-01-09T12:48:50.951Z,100246.13
2023-01-09T12:51:48.600Z,100256.66
2023-01-09T12:54:34.380Z,100271.59
2023-01-09T12:57:21.873Z,100239.44
2023-01-09T12:59:54.817Z,100270.25
2023-01-09T13:02:45.090Z,100255.03
2023-01-09T13:05:26.764Z,100247.56
2023-01-09T13:08:32.319Z,100268.97
2023-01-09T13:11:20.630Z,100297.50
2023-01-09T13:14:09.803Z,100256.50
2023-01-09T13:16:42.234Z,100276.31
2023-01-09T13:19:26.390Z,100286.56
2023-01-09T13:21:57.344Z,100260.25
2023-01-09T13:24:39.249Z,100288.53
2023-01-09T13:27:11.199Z,100292.53
2023-01-09T13:29:42.337Z,100284.50
2023-01-09T13:32:20.991Z,100311.81
2023-01-09T13:34:53.407Z,100326.28
2023-01-09T13:37:24.869Z,100296.31
2023-01-09T13:40:01.496Z,100340.13
2023-01-09T13:42:46.490Z,100305.97
2023-01-09T13:45:16.086Z,100351.66
2023-01-09T13:47:43.654Z,100357.88
2023-01-09T13:50:10.175Z,100363.09
2023-01-09T13:52:41.691Z,100368.28
2023-01-09T13:55:11.252Z,100365.03
2023-01-09T13:58:04.033Z,100381.28
2023-01-09T14:00:37.037Z,100390.81
2023-01-09T14:03:18.216Z,100382.47
2023-01-09T14:05:44.672Z,100409.25
2023-01-09T14:08:22.876Z,100388.84
2023-01-09T14:10:52.939Z,100406.13
2023-01-09T14:13:30.591Z,100413.97
2023-01-09T14:16:05.581Z,100420.94
2023-01-09T14:18:35.694Z,100423.50
2023-01-09T14:23:52.119Z,100421.72
2023-01-09T14:26:24.232Z,100433.66
2023-01-09T14:28:51.720Z,100412.19
2023-01-09T14:31:31.991Z,100442.31
2023-01-09T14:34:43.656Z,100461.47
2023-01-09T14:37:14.016Z,100462.38
2023-01-09T14:39:44.235Z,100447.13
2023-01-09T14:42:15.933Z,100436.06
2023-01-09T14:45:06.612Z,100494.38
2023-01-09T14:47:42.159Z,100479.88
2023-01-09T14:50:17.430Z,100502.44
2023-01-09T14:53:08.094Z,100510.94
2023-01-09T14:55:46.199Z,100513.66
2023-01-09T14:58:26.619Z,100531.72
2023-01-09T15:01:05.636Z,100507.03
2023-01-09T15:03:39.134Z,100541.28
2023-01-09T15:06:06.782Z,100537.13
2023-01-09T15:08:33.527Z,100556.91
2023-01-09T15:11:00.659Z,100555.19
2023-01-09T15:13:31.685Z,100561.31
2023-01-09T15:16:00.323Z,100563.09
2023-01-09T15:18:31.919Z,100543.44
2023-01-09T15:21:02.158Z,100571.88
2023-01-09T15:23:30.554Z,100580.53
2023-01-09T15:26:11.767Z,100558.31
2023-01-09T15:28:43.160Z,100611.59
2023-01-09T15:31:16.518Z,100586.00
2023-01-09T15:33:46.319Z,100584.22
2023-01-09T15:36:22.685Z,100597.28
2023-01-09T15:38:55.373Z,100586.25
2023-01-09T15:41:45.874Z,100581.28
2023-01-09T15:44:16.483Z,100617.38
2023-01-09T15:46:46.302Z,100609.78
2023-01-09T15:49:14.195Z,100607.34
2023-01-09T15:51:44.594Z,100602.28
2023-01-09T15:54:15.195Z,100606.69
2023-01-09T15:56:44.333Z,100622.13
2023-01-09T15:59:28.649Z,100655.78
2023-01-09T16:02:24.282Z,100640.31
2023-01-09T16:04:54.818Z,100651.56
2023-01-09T16:07:21.345Z,100627.56
2023-01-09T16:09:52.667Z,100649.16
2023-01-09T16:12:23.419Z,100642.22
2023-01-09T16:14:55.639Z,100687.72
2023-01-09T16:17:26.348Z,100675.84
2023-01-09T16:20:13.550Z,100683.75
2023-01-09T16:22:55.110Z,100705.28
2023-01-09T16:25:31.786Z,100726.81
2023-01-09T16:28:22.987Z,100748.44
2023-01-09T16:31:17.838Z,100748.44
2023-01-09T16:33:49.816Z,100747.63
2023-01-09T16:36:21.207Z,100743.34
2023-01-09T16:38:48.015Z,100739.97
2023-01-09T16:41:38.985Z,100767.47
2023-01-09T16:44:09.676Z,100781.25
2023-01-09T16:46:43.686Z,100780.38
2023-01-09T16:49:18.443Z,100787.31
2023-01-09T16:51:45.635Z,100794.25
2023-01-09T16:54:12.547Z,100770.19
2023-01-09T16:56:40.517Z,100816.63
2023-01-09T16:59:13.135Z,100809.78
2023-01-09T17:01:40.508Z,100801.22
2023-01-09T17:04:15.542Z,100816.69
2023-01-09T17:06:43.747Z,100840.78
2023-01-09T17:09:18.716Z,100812.44
2023-01-09T17:11:45.747Z,100821.09
2023-01-09T17:14:13.889Z,100846.97
2023-01-09T17:16:43.429Z,100844.47
2023-01-09T17:19:18.146Z,100868.59
2023-01-09T17:21:45.253Z,100870.34
2023-01-09T17:24:30.544Z,100880.63
2023-01-09T17:27:16.404Z,100867.78
2023-01-09T17:29:44.385Z,100853.13
2023-01-09T17:32:18.707Z,100833.38
2023-01-09T17:34:45.276Z,100872.91
2023-01-09T17:37:17.953Z,100868.66
2023-01-09T17:39:45.468Z,100884.94
2023-01-09T17:42:12.450Z,100890.16
2023-01-09T17:44:38.966Z,100860.94
2023-01-09T17:47:07.203Z,100893.66
2023-01-09T17:49:34.139Z,100856.75
2023-01-09T17:52:00.915Z,100901.56
2023-01-09T17:54:27.528Z,100881.81
2023-01-09T17:56:54.543Z,100881.03
2023-01-09T17:59:21.431Z,100870.72
2023-01-09T18:01:48.111Z,100847.50
2023-01-09T18:04:15.096Z,100863.06
2023-01-09T18:06:41.719Z,100872.59
2023-01-09T18:09:11.061Z,100898.44
2023-01-09T18:11:39.872Z,100875.28
2023-01-09T18:14:06.718Z,100890.81
2023-01-09T18:16:34.069Z,100917.50
2023-01-09T18:19:01.809Z,100910.63
2023-01-09T18:21:29.678Z,100886.59
2023-01-09T18:23:57.820Z,100871.16
2023-01-09T18:26:24.480Z,100915.94
2023-01-09T18:28:55.830Z,100936.63
2023-01-09T18:31:24.125Z,100918.56
2023-01-09T18:33:52.403Z,100950.47
2023-01-09T18:36:29.452Z,100935.00
2023-01-09T18:39:01.676Z,100924.72
2023-01-09T18:41:29.193Z,100941.09
2023-01-09T18:43:58.993Z,100969.50
2023-01-09T18:46:30.904Z,100929.91
2023-01-09T18:49:05.240Z,100954.06
2023-01-09T18:51:33.763Z,100967.81
2023-01-09T18:54:00.415Z,100951.47
2023-01-09T18:56:27.283Z,100923.03
2023-01-09T18:59:04.118Z,100952.34
2023-01-09T19:01:32.977Z,100979.09
2023-01-09T19:04:00.261Z,100917.84
2023-01-09T19:06:27.916Z,100971.31
2023-01-09T19:08:55.153Z,100980.81
2023-01-09T19:11:22.153Z,101004.06
2023-01-09T19:13:48.675Z,101003.22
2023-01-09T19:16:15.275Z,100976.44
2023-01-09T19:18:42.934Z,101025.63
2023-01-09T19:21:18.011Z,100983.34
2023-01-09T19:23:45.638Z,101028.19
2023-01-09T19:26:20.978Z,101010.94
2023-01-09T19:28:48.384Z,100991.09
2023-01-09T19:31:16.086Z,101040.28
2023-01-09T19:33:43.577Z,101013.53
2023-01-09T19:36:10.618Z,101042.88
2023-01-09T19:38:38.336Z,101030.75
2023-01-09T19:41:19.089Z,101035.03
2023-01-09T19:43:46.608Z,101060.97
2023-01-09T19:46:16.098Z,101022.94
2023-01-09T19:48:43.032Z,101062.63
2023-01-09T19:51:11.181Z,101038.47
2023-01-09T19:53:38.634Z,101080.75
2023-01-09T19:56:12.930Z,101054.84
2023-01-09T19:58:40.862Z,101085.06
2023-01-09T20:01:12.761Z,101082.50
2023-01-09T20:03:41.568Z,101097.16
2023-01-09T20:06:14.448Z,101100.63
2023-01-09T20:08:42.244Z,101066.03
2023-01-09T20:11:09.304Z,101079.84
2023-01-09T20:13:36.025Z,101078.97
2023-01-09T20:16:03.685Z,101072.09
2023-01-09T20:18:35.111Z,101105.78
2023-01-09T20:21:04.331Z,101083.28
2023-01-09T20:23:34.149Z,101093.66
2023-01-09T20:26:01.018Z,101090.19
2023-01-09T20:28:28.141Z,101094.53
2023-01-09T20:30:55.055Z,101091.94
2023-01-09T20:33:22.128Z,101099.72
2023-01-09T20:35:48.937Z,101085.88
2023-01-09T20:38:15.715Z,101110.03
2023-01-09T20:40:45.454Z,101102.28
2023-01-09T20:43:12.947Z,101095.34
2023-01-09T20:45:40.732Z,101137.69
2023-01-09T20:48:08.306Z,101139.41
2023-01-09T20:50:35.045Z,101127.28
2023-01-09T20:53:01.844Z,101140.22
2023-01-09T20:55:28.409Z,101129.00
2023-01-09T20:57:55.165Z,101122.94
2023-01-09T21:00:24.715Z,101124.66
2023-01-09T21:02:55.457Z,101098.72
2023-01-09T21:05:22.196Z,101128.94
2023-01-09T21:07:48.955Z,101133.22
2023-01-09T21:10:15.831Z,101165.16
2023-01-09T21:12:42.619Z,101159.09
2023-01-09T21:15:11.593Z,101179.81
2023-01-09T21:17:40.015Z,101159.94
2023-01-09T21:20:12.054Z,101183.25
2023-01-09T21:22:39.191Z,101165.97
2023-01-09T21:25:06.570Z,101145.25
2023-01-09T21:27:36.581Z,101133.16
2023-01-09T21:30:06.095Z,101139.19
2023-01-09T21:32:32.939Z,101174.56
2023-01-09T21:35:05.178Z,101162.47
2023-01-09T21:37:34.630Z,101191.88
2023-01-09T21:40:01.670Z,101167.72
2023-01-09T21:42:46.877Z,101182.34
2023-01-09T21:45:33.981Z,101176.28
2023-01-09T21:48:07.112Z,101178.84
2023-01-09T21:50:35.309Z,101179.66
2023-01-09T21:53:02.766Z,101185.69
2023-01-09T21:55:32.034Z,101197.78
2023-01-09T21:58:01.127Z,101229.75
2023-01-09T22:00:28.467Z,101254.72
2023-01-09T22:02:55.436Z,101262.53
2023-01-09T22:05:24.758Z,101246.03
2023-01-09T22:07:51.646Z,101277.13
2023-01-09T22:10:18.533Z,101240.81
2023-01-09T22:13:04.981Z,101276.28
2023-01-09T22:15:32.334Z,101292.69
2023-01-09T22:17:58.945Z,101253.78
2023-01-09T22:20:25.718Z,101248.59
2023-01-09T22:22:52.324Z,101258.13
2023-01-09T22:25:19.832Z,101292.69
2023-01-09T22:27:47.420Z,101288.31
2023-01-09T22:30:14.229Z,101254.59
2023-01-09T22:32:40.797Z,101259.78
2023-01-09T22:35:08.326Z,101280.53
2023-01-09T22:37:34.902Z,101283.13
2023-01-09T22:40:01.594Z,101315.94
2023-01-09T22:42:29.157Z,101295.19
2023-01-09T22:44:55.768Z,101283.03
2023-01-09T22:47:22.296Z,101316.75
2023-01-09T22:49:53.351Z,101279.53
2023-01-09T22:52:20.635Z,101297.66
2023-01-09T22:54:48.033Z,101284.69
2023-01-09T22:57:14.869Z,101287.28
2023-01-09T22:59:41.465Z,101294.94
2023-01-09T23:02:08.058Z,101304.44
2023-01-09T23:04:34.649Z,101339.00
2023-01-09T23:07:01.316Z,101355.47
2023-01-09T23:09:27.900Z,101324.34
2023-01-09T23:12:03.484Z,101320.88
2023-01-09T23:14:36.554Z,101315.59
2023-01-09T23:17:04.403Z,101352.78
2023-01-09T23:19:32.615Z,101354.50
2023-01-09T23:22:03.667Z,101337.19
2023-01-09T23:24:31.533Z,101363.13
2023-01-09T23:26:58.821Z,101331.94
2023-01-09T23:29:26.215Z,101363.13
2023-01-09T23:31:53.868Z,101373.47
2023-01-09T23:34:27.233Z,101362.16
2023-01-09T23:36:57.560Z,101393.25
2023-01-09T23:39:24.272Z,101371.56
2023-01-09T23:42:09.439Z,101336.91
2023-01-09T23:44:38.994Z,101386.19
2023-01-09T23:47:05.559Z,101409.38
2023-01-09T23:49:32.203Z,101395.50
2023-01-09T23:52:01.667Z,101356.53
2023-01-09T23:54:28.768Z,101414.53
2023-01-09T23:56:56.608Z,101384.19
2023-01-09T23:59:23.571Z,101395.41
